Time;durP1;ratioP1;P1;durP2;ratioP2;P2;SDS_P1;SDS_P2;PMS_P1;PMS_P2;Temp;Humidity;BMP_temperature;BMP_pressure;BME280_temperature;BME280_humidity;BME280_pressure;Samples;Min_cycle;Max_cycle;Signal;HPM_P1;HPM_P2
2023/05/31 00:01:08;;;;;;;5.80;3.08;;;18.80;84.70;;;;;;5030996;28;20467;-71
2023/05/31 00:03:35;;;;;;;5.57;3.00;;;18.80;84.70;;;;;;5048792;28;20079;-73
2023/05/31 00:06:01;;;;;;;4.07;2.95;;;18.80;84.90;;;;;;5052171;28;20059;-73
2023/05/31 00:08:26;;;;;;;4.78;3.00;;;18.70;84.90;;;;;;5052366;28;20032;-72
2023/05/31 00:10:52;;;;;;;3.47;3.17;;;18.70;85.00;;;;;;5052735;28;20020;-72
2023/05/31 00:13:17;;;;;;;6.60;2.97;;;18.70;85.00;;;;;;5044240;28;20394;-71
2023/05/31 00:15:43;;;;;;;5.30;2.85;;;18.70;85.10;;;;;;5035715;28;20091;-72
2023/05/31 00:18:08;;;;;;;4.07;3.25;;;18.70;85.10;;;;;;5034941;28;20037;-72
2023/05/31 00:20:34;;;;;;;4.97;3.75;;;18.70;85.20;;;;;;5035798;28;20489;-71
2023/05/31 00:23:00;;;;;;;4.20;3.10;;;18.60;85.20;;;;;;5043272;28;20025;-72
2023/05/31 00:25:25;;;;;;;4.43;3.55;;;18.70;85.30;;;;;;5055721;28;20033;-73
2023/05/31 00:27:51;;;;;;;4.03;2.90;;;18.70;85.30;;;;;;5053545;28;20037;-72
2023/05/31 00:30:17;;;;;;;3.35;3.05;;;18.60;85.30;;;;;;5055373;28;20048;-74
2023/05/31 00:32:42;;;;;;;4.93;3.15;;;18.60;85.30;;;;;;5055140;28;20382;-73
2023/05/31 00:35:08;;;;;;;5.25;3.50;;;18.60;85.40;;;;;;5054308;28;20448;-72
2023/05/31 00:37:37;;;;;;;6.07;3.40;;;18.60;85.40;;;;;;5054160;28;20045;-72
2023/05/31 00:40:05;;;;;;;5.97;3.40;;;18.60;85.50;;;;;;5035440;28;20064;-72
2023/05/31 00:42:31;;;;;;;4.63;3.38;;;18.60;85.60;;;;;;5035494;28;20025;-72
2023/05/31 00:44:57;;;;;;;4.18;3.72;;;18.60;85.50;;;;;;5053861;28;20449;-74
2023/05/31 00:47:24;;;;;;;3.95;3.33;;;18.50;85.60;;;;;;5055038;28;20044;-71
2023/05/31 00:49:50;;;;;;;3.42;3.13;;;18.50;85.70;;;;;;5050837;28;20022;-71
2023/05/31 00:52:15;;;;;;;3.92;3.50;;;18.50;85.70;;;;;;5034938;28;20036;-72
2023/05/31 00:54:42;;;;;;;4.28;3.72;;;18.50;85.70;;;;;;5035100;28;20048;-72
2023/05/31 00:57:07;;;;;;;5.28;3.50;;;18.50;85.80;;;;;;5035039;28;20029;-72
2023/05/31 00:59:33;;;;;;;5.00;4.15;;;18.50;85.80;;;;;;5041130;28;20055;-71
2023/05/31 01:02:02;;;;;;;6.05;3.72;;;18.50;86.00;;;;;;5053510;28;20499;-71
2023/05/31 01:04:28;;;;;;;3.55;3.25;;;18.40;85.90;;;;;;5054832;28;20021;-72
2023/05/31 01:06:53;;;;;;;4.57;4.03;;;18.40;85.90;;;;;;5054890;28;20040;-71
2023/05/31 01:09:19;;;;;;;5.35;4.10;;;18.40;86.00;;;;;;5046543;28;20022;-71
2023/05/31 01:11:51;;;;;;;5.80;4.25;;;18.40;86.00;;;;;;5034598;28;20072;-71
2023/05/31 01:14:44;;;;;;;5.05;3.80;;;18.40;86.10;;;;;;5034865;28;20101;-71
2023/05/31 01:17:30;;;;;;;4.95;3.53;;;18.40;86.30;;;;;;5034672;28;20029;-71
2023/05/31 01:20:00;;;;;;;5.22;3.80;;;18.40;86.30;;;;;;5035670;28;20025;-73
2023/05/31 01:22:44;;;;;;;5.68;3.88;;;18.30;86.40;;;;;;5034047;28;20364;-72
2023/05/31 01:25:29;;;;;;;4.63;3.90;;;18.30;86.50;;;;;;5034400;28;20026;-71
2023/05/31 01:27:58;;;;;;;4.10;3.70;;;18.30;86.60;;;;;;5036264;28;20041;-71
2023/05/31 01:30:26;;;;;;;3.92;3.40;;;18.30;86.70;;;;;;5054513;28;20096;-73
2023/05/31 01:32:54;;;;;;;4.10;3.63;;;18.30;86.70;;;;;;5054377;28;20063;-72
2023/05/31 01:35:20;;;;;;;4.40;3.97;;;18.30;86.70;;;;;;5054262;28;20378;-72
2023/05/31 01:37:45;;;;;;;3.55;3.25;;;18.30;86.70;;;;;;5054012;28;20518;-75
2023/05/31 01:40:14;;;;;;;4.90;3.80;;;18.30;86.90;;;;;;5035451;28;20060;-71
2023/05/31 01:42:40;;;;;;;5.88;3.92;;;18.30;86.80;;;;;;5034010;28;20026;-72
2023/05/31 01:45:07;;;;;;;4.80;4.13;;;18.20;86.90;;;;;;5034205;28;20101;-72
2023/05/31 01:47:33;;;;;;;4.05;3.67;;;18.20;87.00;;;;;;5034232;28;20036;-71
2023/05/31 01:49:59;;;;;;;4.03;3.65;;;18.20;87.10;;;;;;5050166;28;20021;-71
2023/05/31 01:52:26;;;;;;;6.05;4.13;;;18.20;87.20;;;;;;5053728;28;20020;-72
2023/05/31 01:54:51;;;;;;;4.50;4.05;;;18.20;87.20;;;;;;5053871;28;20051;-71
2023/05/31 01:57:17;;;;;;;4.60;4.18;;;18.10;87.30;;;;;;5053428;28;20486;-71
2023/05/31 01:59:44;;;;;;;7.25;4.07;;;18.10;87.30;;;;;;5039555;28;20036;-73
2023/05/31 02:02:10;;;;;;;4.03;3.50;;;18.10;87.40;;;;;;5034025;28;20048;-71
2023/05/31 02:04:35;;;;;;;4.10;3.70;;;18.10;87.50;;;;;;5034106;28;20370;-71
2023/05/31 02:07:01;;;;;;;6.85;4.10;;;18.10;87.60;;;;;;5033852;28;20021;-72
2023/05/31 02:09:27;;;;;;;5.18;4.60;;;18.00;87.70;;;;;;5033823;28;20067;-71
2023/05/31 02:11:53;;;;;;;4.65;4.10;;;18.10;87.80;;;;;;5047382;28;20466;-71
2023/05/31 02:14:18;;;;;;;5.25;4.15;;;18.00;87.70;;;;;;5053272;28;20471;-72
2023/05/31 02:16:44;;;;;;;4.70;4.30;;;18.00;87.80;;;;;;5053447;28;20041;-72
2023/05/31 02:19:13;;;;;;;6.25;4.30;;;18.00;87.80;;;;;;5053311;28;20021;-72
2023/05/31 02:21:39;;;;;;;5.20;4.10;;;18.00;87.90;;;;;;5051541;28;20413;-72
2023/05/31 02:24:05;;;;;;;5.25;4.50;;;18.00;88.00;;;;;;5052384;28;20025;-72
2023/05/31 02:26:30;;;;;;;4.68;4.13;;;18.00;88.20;;;;;;5052700;28;20025;-73
2023/05/31 02:28:56;;;;;;;5.18;4.35;;;18.00;88.30;;;;;;5053256;28;20032;-72
2023/05/31 02:31:21;;;;;;;5.22;4.30;;;18.00;88.40;;;;;;5051203;28;20072;-72
2023/05/31 02:33:48;;;;;;;5.13;4.70;;;18.00;88.40;;;;;;5053150;28;20025;-73
2023/05/31 02:36:13;;;;;;;6.20;5.03;;;17.90;88.40;;;;;;5053115;28;20029;-72
2023/05/31 02:38:39;;;;;;;6.45;4.55;;;17.90;88.50;;;;;;5053031;28;20060;-72
2023/05/31 02:41:05;;;;;;;5.05;4.32;;;18.00;88.70;;;;;;5052803;28;20047;-72
2023/05/31 02:43:30;;;;;;;6.93;4.50;;;17.90;88.70;;;;;;5033561;28;20056;-72
2023/05/31 02:45:57;;;;;;;5.75;4.63;;;17.90;88.80;;;;;;5033205;28;20385;-72
2023/05/31 02:48:22;;;;;;;6.20;4.57;;;17.90;88.90;;;;;;5032848;28;20028;-72
2023/05/31 02:50:48;;;;;;;6.13;4.65;;;17.90;89.00;;;;;;5033098;28;20021;-73
2023/05/31 02:53:14;;;;;;;5.60;4.93;;;17.80;89.00;;;;;;5048730;28;20071;-72
2023/05/31 02:55:40;;;;;;;5.45;4.40;;;17.90;89.20;;;;;;5033257;28;20057;-72
2023/05/31 02:58:06;;;;;;;5.38;4.88;;;17.90;89.20;;;;;;5032918;28;20096;-72
2023/05/31 03:00:33;;;;;;;6.45;5.07;;;17.80;89.30;;;;;;5032990;28;20075;-72
2023/05/31 03:02:58;;;;;;;6.70;4.35;;;17.90;89.50;;;;;;5032778;28;20057;-72
2023/05/31 03:05:24;;;;;;;5.95;4.95;;;17.80;89.50;;;;;;5052739;28;20078;-72
2023/05/31 03:07:49;;;;;;;6.45;5.32;;;17.80;89.60;;;;;;5052442;28;20082;-72
2023/05/31 03:10:15;;;;;;;6.40;5.07;;;17.80;89.70;;;;;;5053134;28;20079;-72
2023/05/31 03:12:41;;;;;;;8.65;5.43;;;17.80;89.80;;;;;;5052717;28;20025;-72
2023/05/31 03:15:08;;;;;;;6.97;5.35;;;17.80;89.90;;;;;;5052342;28;20466;-72
2023/05/31 03:17:33;;;;;;;8.13;4.75;;;17.80;90.00;;;;;;5051337;28;20032;-72
2023/05/31 03:19:59;;;;;;;6.57;5.53;;;17.70;90.00;;;;;;5052691;28;20025;-72
2023/05/31 03:22:25;;;;;;;5.28;4.78;;;17.70;90.10;;;;;;5052310;28;20029;-72
2023/05/31 03:24:50;;;;;;;8.43;5.07;;;17.70;90.10;;;;;;5052851;28;20142;-72
2023/05/31 03:27:16;;;;;;;5.47;4.97;;;17.70;90.10;;;;;;5037292;28;20067;-71
2023/05/31 03:29:42;;;;;;;6.30;5.10;;;17.70;90.20;;;;;;5032812;28;20033;-71
2023/05/31 03:32:08;;;;;;;8.00;5.30;;;17.70;90.20;;;;;;5032629;28;20029;-72
2023/05/31 03:34:34;;;;;;;5.75;5.15;;;17.60;90.30;;;;;;5032534;28;20028;-71
2023/05/31 03:37:00;;;;;;;6.50;5.50;;;17.60;90.30;;;;;;5044639;28;20076;-72
2023/05/31 03:39:26;;;;;;;6.30;5.65;;;17.60;90.30;;;;;;5052755;28;20071;-72
2023/05/31 03:41:52;;;;;;;6.00;5.50;;;17.60;90.40;;;;;;5052501;28;20144;-72
2023/05/31 03:44:18;;;;;;;6.70;6.00;;;17.60;90.50;;;;;;5052498;28;20053;-72
2023/05/31 03:46:43;;;;;;;8.93;5.97;;;17.60;90.50;;;;;;5046378;28;20018;-72
2023/05/31 03:49:10;;;;;;;7.75;5.68;;;17.60;90.60;;;;;;5035204;28;20092;-71
2023/05/31 03:51:35;;;;;;;8.43;5.68;;;17.60;90.60;;;;;;5036273;28;20023;-71
2023/05/31 03:54:01;;;;;;;6.80;6.07;;;17.50;90.70;;;;;;5036229;28;20030;-71
2023/05/31 03:56:27;;;;;;;6.55;5.85;;;17.50;90.70;;;;;;5039173;28;20116;-71
2023/05/31 03:58:52;;;;;;;8.20;5.85;;;17.60;90.80;;;;;;5054538;28;20508;-72
2023/05/31 04:01:18;;;;;;;7.65;5.88;;;17.60;90.80;;;;;;5056251;28;20028;-72
2023/05/31 04:03:43;;;;;;;18.67;7.03;;;17.50;90.80;;;;;;5056055;28;20494;-70
2023/05/31 04:06:10;;;;;;;8.30;5.40;;;17.50;90.80;;;;;;5055602;28;20056;-70
2023/05/31 04:08:36;;;;;;;6.35;5.45;;;17.40;90.20;;;;;;5051166;28;20434;-70
2023/05/31 04:11:02;;;;;;;8.45;5.55;;;17.50;90.20;;;;;;5034736;28;20478;-70
2023/05/31 04:13:27;;;;;;;8.07;6.20;;;17.50;90.10;;;;;;5037882;28;20525;-72
2023/05/31 04:15:53;;;;;;;8.52;6.07;;;17.60;90.30;;;;;;5055785;28;20025;-70
2023/05/31 04:18:19;;;;;;;7.82;6.45;;;17.50;90.20;;;;;;5055663;28;20029;-70
2023/05/31 04:20:44;;;;;;;7.97;6.13;;;17.60;90.30;;;;;;5051237;28;20057;-70
2023/05/31 04:23:10;;;;;;;6.15;5.40;;;17.50;90.30;;;;;;5036056;28;20021;-70
2023/05/31 04:25:35;;;;;;;7.82;6.97;;;17.50;90.40;;;;;;5034547;28;20021;-70
2023/05/31 04:28:01;;;;;;;8.52;6.70;;;17.60;90.50;;;;;;5035267;28;20048;-70
2023/05/31 04:30:27;;;;;;;7.70;5.60;;;17.60;90.40;;;;;;5035731;28;20040;-70
2023/05/31 04:32:56;;;;;;;8.00;6.78;;;17.60;90.30;;;;;;5055556;28;20386;-70
2023/05/31 04:35:22;;;;;;;6.90;6.20;;;17.60;90.40;;;;;;5055529;28;20013;-70
2023/05/31 04:37:52;;;;;;;7.85;7.03;;;17.60;90.50;;;;;;5054188;28;20033;-70
2023/05/31 04:40:19;;;;;;;6.80;6.07;;;17.60;90.40;;;;;;5055487;28;20377;-70
2023/05/31 04:42:45;;;;;;;8.35;6.18;;;17.60;90.50;;;;;;5052617;28;20489;-70
2023/05/31 04:45:11;;;;;;;8.98;6.40;;;17.50;90.60;;;;;;5034104;28;20022;-70
2023/05/31 04:47:37;;;;;;;8.82;7.05;;;17.50;90.60;;;;;;5035285;28;20025;-70
2023/05/31 04:50:03;;;;;;;7.53;6.18;;;17.50;90.70;;;;;;5035243;28;20414;-69
2023/05/31 04:52:31;;;;;;;8.57;7.22;;;17.50;90.70;;;;;;5046107;28;20380;-70
2023/05/31 04:54:58;;;;;;;7.70;6.88;;;17.40;90.70;;;;;;5050342;28;20018;-73
2023/05/31 04:57:24;;;;;;;9.50;6.70;;;17.40;90.80;;;;;;5037159;28;20064;-71
2023/05/31 04:59:50;;;;;;;8.77;7.07;;;17.50;91.00;;;;;;5032987;28;20026;-73
2023/05/31 05:02:18;;;;;;;8.07;7.28;;;17.50;91.20;;;;;;5033020;28;20040;-74
2023/05/31 05:04:43;;;;;;;7.55;6.78;;;17.50;91.10;;;;;;5040201;28;20047;-73
2023/05/31 05:07:09;;;;;;;9.18;7.55;;;17.50;91.20;;;;;;5038339;28;20479;-74
2023/05/31 05:09:35;;;;;;;8.77;7.30;;;17.50;91.30;;;;;;5032247;28;20130;-72
2023/05/31 05:12:00;;;;;;;11.85;7.55;;;17.50;91.30;;;;;;5040087;28;20088;-73
2023/05/31 05:14:26;;;;;;;11.75;7.75;;;17.50;91.30;;;;;;5034957;28;20029;-72
2023/05/31 05:16:51;;;;;;;11.10;8.00;;;17.40;91.30;;;;;;5039434;28;20025;-73
2023/05/31 05:19:17;;;;;;;10.55;7.20;;;17.50;91.40;;;;;;5039509;28;20022;-78
2023/05/31 05:21:42;;;;;;;9.25;7.45;;;17.50;91.40;;;;;;5042609;28;20025;-77
2023/05/31 05:24:08;;;;;;;9.65;7.47;;;17.40;91.40;;;;;;5049893;28;20066;-76
2023/05/31 05:26:34;;;;;;;8.02;7.18;;;17.40;91.50;;;;;;5067156;28;20108;-75
2023/05/31 05:28:59;;;;;;;10.90;7.57;;;17.40;91.50;;;;;;5048542;28;20542;-76
2023/05/31 05:31:25;;;;;;;9.40;7.53;;;17.50;91.60;;;;;;5038170;28;20025;-76
2023/05/31 05:33:51;;;;;;;9.18;7.85;;;17.50;91.60;;;;;;5052979;28;20528;-78
2023/05/31 05:36:17;;;;;;;10.63;7.95;;;17.40;91.60;;;;;;5048898;28;20100;-75
2023/05/31 05:38:42;;;;;;;10.60;8.20;;;17.50;92.00;;;;;;5035472;28;20387;-74
2023/05/31 05:41:12;;;;;;;13.75;8.68;;;17.50;92.10;;;;;;5042193;28;20032;-74
2023/05/31 05:43:38;;;;;;;11.05;8.43;;;17.70;92.10;;;;;;5048111;28;20049;-76
2023/05/31 05:46:03;;;;;;;9.73;8.05;;;17.70;91.90;;;;;;5046709;28;20021;-74
2023/05/31 05:48:29;;;;;;;9.82;7.78;;;17.80;91.70;;;;;;5043756;28;20119;-74
2023/05/31 05:50:55;;;;;;;9.40;7.53;;;17.90;91.60;;;;;;5052747;28;20053;-74
2023/05/31 05:53:20;;;;;;;9.55;8.00;;;17.90;91.50;;;;;;5045518;28;20119;-74
2023/05/31 05:55:53;;;;;;;8.82;7.93;;;18.00;91.40;;;;;;5046907;28;20052;-73
2023/05/31 05:58:18;;;;;;;;;;;18.10;91.20;;;;;;5043849;28;20053;-73
2023/05/31 06:00:48;;;;;;;8.98;7.72;;;18.10;90.80;;;;;;5032913;28;19916;-75
2023/05/31 06:03:14;;;;;;;8.98;7.88;;;18.30;91.00;;;;;;5040675;28;20379;-75
2023/05/31 06:05:44;;;;;;;9.73;7.85;;;18.40;90.90;;;;;;5034901;28;20068;-75
2023/05/31 06:08:10;;;;;;;11.32;7.65;;;18.40;90.90;;;;;;5042664;28;20026;-74
2023/05/31 06:10:36;;;;;;;10.55;8.00;;;18.50;90.70;;;;;;5045908;28;20029;-74
2023/05/31 06:13:02;;;;;;;11.93;8.05;;;18.60;90.40;;;;;;5047431;28;20029;-72
2023/05/31 06:15:28;;;;;;;10.63;7.55;;;18.70;90.40;;;;;;5032976;28;20160;-74
2023/05/31 06:17:54;;;;;;;13.52;8.02;;;18.70;90.30;;;;;;5033379;28;20538;-73
2023/05/31 06:20:21;;;;;;;10.05;7.43;;;18.80;90.30;;;;;;5033448;28;20067;-73
2023/05/31 06:22:47;;;;;;;13.85;8.00;;;18.90;90.30;;;;;;5048925;28;20033;-73
2023/05/31 06:25:13;;;;;;;11.18;7.78;;;19.00;90.00;;;;;;5053167;28;20027;-73
2023/05/31 06:27:38;;;;;;;9.90;8.13;;;19.00;90.10;;;;;;5053126;28;20063;-73
2023/05/31 06:30:05;;;;;;;12.10;7.18;;;19.10;89.90;;;;;;5045471;28;20034;-73
2023/05/31 06:32:30;;;;;;;12.43;8.20;;;19.20;89.90;;;;;;5033075;28;20387;-73
2023/05/31 06:34:56;;;;;;;12.77;8.73;;;19.20;89.60;;;;;;5033378;28;20566;-73
2023/05/31 06:37:22;;;;;;;11.02;7.72;;;19.30;89.50;;;;;;5033769;28;20168;-73
2023/05/31 06:39:49;;;;;;;12.15;7.30;;;19.30;89.80;;;;;;5034149;28;20014;-73
2023/05/31 06:42:15;;;;;;;13.07;8.20;;;19.30;89.80;;;;;;5033194;28;20055;-73
2023/05/31 06:44:42;;;;;;;8.82;7.80;;;19.40;89.20;;;;;;5033033;28;20101;-73
2023/05/31 06:47:07;;;;;;;10.75;6.85;;;19.50;88.80;;;;;;5033902;28;20025;-73
2023/05/31 06:49:33;;;;;;;11.07;8.45;;;19.50;88.90;;;;;;5052169;28;20040;-73
2023/05/31 06:51:59;;;;;;;11.95;8.57;;;19.50;89.20;;;;;;5052998;28;20024;-73
2023/05/31 06:54:26;;;;;;;11.35;8.25;;;19.60;89.50;;;;;;5051002;28;20033;-73
2023/05/31 06:56:52;;;;;;;11.73;7.60;;;19.70;89.30;;;;;;5052762;28;20032;-73
2023/05/31 06:59:17;;;;;;;10.15;7.63;;;19.70;89.20;;;;;;5052991;28;20029;-73
2023/05/31 07:01:43;;;;;;;8.63;7.53;;;19.80;89.30;;;;;;5051386;28;20025;-73
2023/05/31 07:04:08;;;;;;;12.07;8.05;;;19.80;88.90;;;;;;5049268;28;20029;-72
2023/05/31 07:06:36;;;;;;;12.40;7.55;;;19.90;89.10;;;;;;5032787;28;20029;-73
2023/05/31 07:09:01;;;;;;;9.30;7.60;;;19.90;88.80;;;;;;5032233;28;20018;-72
2023/05/31 07:11:27;;;;;;;10.13;7.80;;;20.00;88.90;;;;;;5032747;28;20083;-73
2023/05/31 07:13:54;;;;;;;9.43;7.20;;;20.00;88.60;;;;;;5033898;28;20024;-73
2023/05/31 07:16:19;;;;;;;9.65;8.23;;;20.10;88.90;;;;;;5032381;28;20426;-73
2023/05/31 07:18:46;;;;;;;9.15;7.25;;;20.10;88.60;;;;;;5032888;28;20536;-73
2023/05/31 07:21:12;;;;;;;10.07;7.63;;;20.20;88.80;;;;;;5034012;28;20498;-73
2023/05/31 07:23:37;;;;;;;8.32;7.50;;;20.20;88.80;;;;;;5036345;28;20025;-73
2023/05/31 07:26:03;;;;;;;10.20;8.35;;;20.20;88.90;;;;;;5048596;28;20025;-73
2023/05/31 07:28:28;;;;;;;12.40;8.80;;;20.30;88.60;;;;;;5056472;28;20040;-73
2023/05/31 07:30:54;;;;;;;9.98;8.57;;;20.30;88.20;;;;;;5056606;28;20043;-73
2023/05/31 07:33:20;;;;;;;11.95;8.07;;;20.40;87.50;;;;;;5054866;28;20029;-73
2023/05/31 07:35:46;;;;;;;12.38;8.15;;;20.40;87.70;;;;;;5056049;28;20027;-74
2023/05/31 07:38:12;;;;;;;12.02;8.77;;;20.50;87.20;;;;;;5040289;28;20033;-73
2023/05/31 07:40:37;;;;;;;12.57;8.40;;;20.60;87.00;;;;;;5036150;28;20030;-73
2023/05/31 07:43:03;;;;;;;10.60;7.75;;;20.60;87.30;;;;;;5036632;28;20029;-74
2023/05/31 07:45:28;;;;;;;11.30;7.72;;;20.60;87.30;;;;;;5036162;28;20033;-75
2023/05/31 07:47:55;;;;;;;11.20;7.78;;;20.60;88.10;;;;;;5036023;28;20041;-74
2023/05/31 07:50:20;;;;;;;13.93;8.20;;;20.70;87.50;;;;;;5036225;28;20028;-74
2023/05/31 07:52:49;;;;;;;10.43;7.78;;;20.70;87.70;;;;;;5036034;28;20022;-74
2023/05/31 07:55:18;;;;;;;10.27;7.22;;;20.70;87.50;;;;;;5036190;28;20467;-74
2023/05/31 07:57:43;;;;;;;11.63;8.00;;;20.70;87.80;;;;;;5035698;28;20037;-74
2023/05/31 08:00:13;;;;;;;11.98;7.82;;;20.80;87.10;;;;;;5042037;28;20035;-74
2023/05/31 08:02:39;;;;;;;9.40;7.35;;;20.80;87.20;;;;;;5041463;28;20105;-73
2023/05/31 08:05:05;;;;;;;15.35;8.13;;;20.90;87.20;;;;;;5036388;28;20104;-74
2023/05/31 08:07:31;;;;;;;9.27;7.40;;;21.00;87.10;;;;;;5036137;28;20036;-74
2023/05/31 08:09:57;;;;;;;12.05;8.43;;;21.00;87.10;;;;;;5035684;28;20026;-73
2023/05/31 08:12:23;;;;;;;10.95;7.57;;;21.00;86.80;;;;;;5034519;28;20029;-75
2023/05/31 08:14:49;;;;;;;9.82;6.97;;;21.00;86.90;;;;;;5035899;28;20029;-75
2023/05/31 08:17:14;;;;;;;12.68;7.10;;;21.00;87.20;;;;;;5035749;28;20045;-73
2023/05/31 08:19:40;;;;;;;10.88;7.85;;;21.00;87.50;;;;;;5035648;28;20438;-74
2023/05/31 08:22:05;;;;;;;11.88;8.18;;;21.10;87.30;;;;;;5048263;28;20502;-73
2023/05/31 08:24:31;;;;;;;13.32;8.10;;;21.10;87.20;;;;;;5053951;28;20074;-74
2023/05/31 08:26:58;;;;;;;10.00;7.82;;;21.10;86.20;;;;;;5053486;28;20394;-74
2023/05/31 08:29:23;;;;;;;13.52;8.18;;;21.20;85.90;;;;;;5054851;28;20450;-74
2023/05/31 08:31:49;;;;;;;10.32;7.65;;;21.20;86.20;;;;;;5055339;28;20471;-74
2023/05/31 08:34:15;;;;;;;10.95;8.57;;;21.20;86.10;;;;;;5055461;28;20457;-74
2023/05/31 08:36:40;;;;;;;10.70;8.13;;;21.30;85.70;;;;;;5055379;28;20025;-75
2023/05/31 08:39:08;;;;;;;12.07;8.10;;;21.30;86.10;;;;;;5055308;28;20029;-75
2023/05/31 08:41:43;;;;;;;11.43;8.32;;;21.30;86.60;;;;;;5054989;28;20028;-75
2023/05/31 08:44:10;;;;;;;11.48;8.00;;;21.30;86.20;;;;;;5055292;28;20049;-75
2023/05/31 08:46:37;;;;;;;10.02;7.35;;;21.30;86.30;;;;;;5055317;28;20013;-75
2023/05/31 08:49:10;;;;;;;11.70;8.20;;;21.30;86.10;;;;;;5053802;28;20028;-75
2023/05/31 08:51:37;;;;;;;11.27;8.93;;;21.30;85.90;;;;;;5052927;28;20427;-75
2023/05/31 08:54:05;;;;;;;10.50;6.70;;;21.40;86.00;;;;;;5053753;28;20390;-75
2023/05/31 08:56:31;;;;;;;11.73;7.78;;;21.40;86.20;;;;;;5054894;28;20059;-75
2023/05/31 08:58:57;;;;;;;12.48;8.05;;;21.40;86.20;;;;;;5054771;28;20063;-75
2023/05/31 09:01:25;;;;;;;8.40;6.72;;;21.40;85.50;;;;;;5054918;28;20498;-74
2023/05/31 09:03:53;;;;;;;12.98;7.15;;;21.40;85.50;;;;;;5054989;28;20497;-75
2023/05/31 09:06:19;;;;;;;9.48;7.28;;;21.50;85.90;;;;;;5055112;28;20100;-75
2023/05/31 09:08:45;;;;;;;12.60;7.82;;;21.50;86.10;;;;;;5054982;28;20104;-75
2023/05/31 09:11:12;;;;;;;12.38;7.85;;;21.50;85.70;;;;;;5054617;28;20052;-75
2023/05/31 09:13:37;;;;;;;8.85;7.28;;;21.50;85.60;;;;;;5054978;28;20021;-75
2023/05/31 09:16:03;;;;;;;10.60;7.57;;;21.50;85.30;;;;;;5052788;28;20079;-74
2023/05/31 09:18:36;;;;;;;12.75;7.43;;;21.50;85.30;;;;;;5053449;28;20082;-75
2023/05/31 09:21:08;;;;;;;11.48;8.30;;;21.60;85.30;;;;;;5053682;28;20017;-75
2023/05/31 09:23:34;;;;;;;11.85;8.18;;;21.60;85.00;;;;;;5054066;28;20543;-74
2023/05/31 09:26:00;;;;;;;13.52;8.20;;;21.60;84.80;;;;;;5053322;28;20025;-74
2023/05/31 09:28:26;;;;;;;12.18;7.60;;;21.50;85.10;;;;;;5053089;28;20163;-74
2023/05/31 09:31:06;;;;;;;8.30;6.25;;;21.60;85.30;;;;;;5053482;28;20029;-75
2023/05/31 09:33:40;;;;;;;11.05;6.78;;;21.60;84.70;;;;;;5053537;28;20060;-75
2023/05/31 09:36:06;;;;;;;11.95;7.78;;;21.60;84.20;;;;;;5053622;28;20500;-75
2023/05/31 09:38:33;;;;;;;11.20;6.90;;;21.60;85.10;;;;;;5054431;28;20033;-75
2023/05/31 09:41:34;;;;;;;10.55;7.13;;;21.60;84.80;;;;;;5053867;28;20474;-75
2023/05/31 09:44:01;;;;;;;10.15;6.80;;;21.60;84.00;;;;;;5031397;28;20074;-75
2023/05/31 09:46:27;;;;;;;12.88;6.93;;;21.60;84.50;;;;;;5049358;28;20482;-75
2023/05/31 09:49:00;;;;;;;10.93;6.90;;;21.60;84.40;;;;;;5048496;28;20029;-75
2023/05/31 09:51:25;;;;;;;13.15;7.18;;;21.70;83.60;;;;;;5052113;28;20017;-75
2023/05/31 09:53:55;;;;;;;15.38;6.07;;;21.70;83.60;;;;;;5053936;28;20033;-75
2023/05/31 09:56:22;;;;;;;10.90;6.45;;;21.70;83.60;;;;;;5052736;28;20096;-75
2023/05/31 09:58:48;;;;;;;8.05;4.40;;;21.70;83.70;;;;;;5053165;28;20060;-75
2023/05/31 10:01:15;;;;;;;12.98;6.05;;;21.70;83.70;;;;;;5053240;28;20025;-75
2023/05/31 10:03:46;;;;;;;15.77;7.57;;;21.70;83.00;;;;;;5052785;28;20515;-75
2023/05/31 10:06:16;;;;;;;9.98;7.43;;;21.70;82.70;;;;;;5052702;28;20041;-75
2023/05/31 10:08:43;;;;;;;13.60;6.50;;;21.70;82.30;;;;;;5052638;28;20033;-76
2023/05/31 10:11:12;;;;;;;10.02;5.68;;;21.70;82.50;;;;;;5052749;28;20071;-75
2023/05/31 10:13:42;;;;;;;10.95;5.35;;;21.70;83.00;;;;;;5048294;28;20137;-74
2023/05/31 10:16:09;;;;;;;10.15;5.70;;;21.70;82.70;;;;;;5032219;28;20048;-75
2023/05/31 10:18:38;;;;;;;10.20;5.82;;;21.70;82.30;;;;;;5047382;28;20072;-75
2023/05/31 10:21:25;;;;;;;8.15;5.15;;;21.80;81.80;;;;;;5053002;28;20056;-75
2023/05/31 10:24:15;;;;;;;8.88;5.13;;;21.80;81.80;;;;;;5053375;28;20021;-75
2023/05/31 10:26:46;;;;;;;10.27;5.80;;;21.80;81.80;;;;;;5041857;28;20040;-74
2023/05/31 10:29:23;;;;;;;10.50;5.40;;;21.80;82.40;;;;;;5040368;28;20041;-75
2023/05/31 10:31:50;;;;;;;9.57;5.25;;;21.80;82.50;;;;;;5041450;28;20017;-75
2023/05/31 10:34:19;;;;;;;8.98;4.35;;;21.80;82.30;;;;;;5044304;28;20029;-74
2023/05/31 10:36:45;;;;;;;10.23;4.97;;;21.80;82.20;;;;;;5051542;28;20062;-74
2023/05/31 10:39:24;;;;;;;12.32;5.45;;;21.80;82.10;;;;;;5051386;28;20025;-73
2023/05/31 10:42:06;;;;;;;7.80;5.10;;;21.80;80.40;;;;;;5046670;28;20107;-73
2023/05/31 10:44:36;;;;;;;;;;;21.90;80.80;;;;;;5040125;28;20494;-74
2023/05/31 10:47:07;;;;;;;11.07;5.45;;;21.80;80.90;;;;;;5032512;28;20405;-74
2023/05/31 10:49:36;;;;;;;8.40;5.28;;;21.90;81.20;;;;;;5039244;28;20021;-75
2023/05/31 10:52:05;;;;;;;8.57;5.50;;;21.80;80.00;;;;;;5036678;28;20052;-74
2023/05/31 10:54:33;;;;;;;13.73;5.65;;;21.90;81.10;;;;;;5034342;28;20060;-73
2023/05/31 10:57:03;;;;;;;9.82;5.72;;;21.90;81.00;;;;;;5044667;28;20115;-74
2023/05/31 10:59:38;;;;;;;9.32;4.55;;;21.90;80.80;;;;;;5047836;28;20079;-76
2023/05/31 11:02:05;;;;;;;10.65;4.20;;;21.90;80.00;;;;;;5048497;28;20041;-76
2023/05/31 11:04:31;;;;;;;9.93;5.10;;;21.90;80.70;;;;;;5038327;28;20060;-73
2023/05/31 11:07:15;;;;;;;8.52;4.82;;;22.00;79.80;;;;;;5045785;28;20060;-76
2023/05/31 11:09:42;;;;;;;9.57;4.95;;;22.00;78.40;;;;;;5034568;28;20087;-76
2023/05/31 11:12:12;;;;;;;9.52;4.80;;;22.00;79.00;;;;;;5050023;28;20013;-75
2023/05/31 11:14:38;;;;;;;7.97;4.45;;;22.10;78.10;;;;;;5039187;28;20390;-74
2023/05/31 11:17:04;;;;;;;13.00;4.68;;;22.10;79.00;;;;;;5030571;28;20029;-74
2023/05/31 11:19:34;;;;;;;11.45;5.25;;;22.10;78.80;;;;;;5054413;28;20044;-73
2023/05/31 11:22:14;;;;;;;8.10;4.43;;;22.10;78.00;;;;;;5050212;28;20054;-72
2023/05/31 11:24:50;;;;;;;9.65;5.03;;;22.20;78.40;;;;;;5059946;28;20021;-73
2023/05/31 11:27:23;;;;;;;9.75;5.15;;;22.20;79.90;;;;;;5049482;28;20025;-72
2023/05/31 11:29:51;;;;;;;12.73;5.32;;;22.10;79.00;;;;;;5035547;28;20132;-71
2023/05/31 11:32:18;;;;;;;7.75;3.90;;;22.20;78.80;;;;;;5042749;28;20035;-72
2023/05/31 11:34:56;;;;;;;10.85;3.92;;;22.20;78.90;;;;;;5040615;28;20490;-75
2023/05/31 11:37:22;;;;;;;10.02;4.72;;;22.20;79.00;;;;;;5041311;28;20044;-74
2023/05/31 11:39:48;;;;;;;9.45;5.13;;;22.20;77.90;;;;;;5035623;28;20100;-73
2023/05/31 11:42:15;;;;;;;7.38;3.88;;;22.20;76.40;;;;;;5037678;28;20513;-73
2023/05/31 11:44:45;;;;;;;4.80;2.75;;;22.20;77.60;;;;;;5047571;28;20025;-73
2023/05/31 11:47:24;;;;;;;8.02;4.68;;;22.20;80.00;;;;;;5040885;28;20139;-76
2023/05/31 11:49:50;;;;;;;8.57;4.65;;;22.30;78.50;;;;;;5038102;28;20076;-72
2023/05/31 11:52:18;;;;;;;8.93;4.22;;;22.30;77.60;;;;;;5054463;28;20029;-74
2023/05/31 11:54:45;;;;;;;9.90;4.10;;;22.30;78.90;;;;;;5058715;28;20064;-75
2023/05/31 11:57:11;;;;;;;9.32;4.00;;;22.30;78.00;;;;;;5049278;28;20072;-75
2023/05/31 11:59:39;;;;;;;11.50;4.93;;;22.40;78.00;;;;;;5043345;28;20037;-74
2023/05/31 12:02:06;;;;;;;8.13;4.00;;;22.40;77.60;;;;;;5056431;28;20557;-74
2023/05/31 12:04:35;;;;;;;15.07;5.05;;;22.40;77.50;;;;;;5051993;28;20047;-74
2023/05/31 12:07:01;;;;;;;8.60;4.22;;;22.40;77.50;;;;;;5053055;28;20033;-73
2023/05/31 12:09:27;;;;;;;7.32;4.38;;;22.40;77.30;;;;;;5051327;28;20036;-67
2023/05/31 12:11:54;;;;;;;8.88;3.92;;;22.40;76.50;;;;;;5070396;28;20025;-67
2023/05/31 12:14:20;;;;;;;8.55;4.13;;;22.50;77.00;;;;;;5053081;28;20479;-67
2023/05/31 12:16:50;;;;;;;8.20;4.07;;;22.50;77.50;;;;;;5049390;28;20025;-69
2023/05/31 12:19:16;;;;;;;7.50;3.88;;;22.50;77.10;;;;;;5050668;28;20175;-70
2023/05/31 12:21:42;;;;;;;5.88;4.20;;;22.50;77.60;;;;;;5044407;28;20513;-72
2023/05/31 12:24:15;;;;;;;6.47;3.53;;;22.50;75.70;;;;;;5044728;28;20040;-71
2023/05/31 12:26:48;;;;;;;6.35;3.28;;;22.50;76.10;;;;;;5035422;28;20028;-73
2023/05/31 12:29:15;;;;;;;6.55;3.08;;;22.50;75.70;;;;;;5059798;28;20091;-71
2023/05/31 12:31:41;;;;;;;7.03;2.97;;;22.60;75.50;;;;;;5051416;28;20088;-71
2023/05/31 12:34:09;;;;;;;9.70;3.58;;;22.60;75.80;;;;;;5065595;28;20032;-67
2023/05/31 12:36:42;;;;;;;6.10;3.25;;;22.60;75.70;;;;;;5043652;28;20021;-67
2023/05/31 12:39:11;;;;;;;7.32;3.63;;;22.60;76.20;;;;;;5039683;28;20029;-72
2023/05/31 12:41:37;;;;;;;7.25;2.50;;;22.60;76.40;;;;;;5041898;28;20013;-77
2023/05/31 12:44:03;;;;;;;5.20;2.08;;;22.60;78.80;;;;;;5054613;28;20100;-74